Time;durP1;ratioP1;P1;durP2;ratioP2;P2;SDS_P1;SDS_P2;PMS_P1;PMS_P2;Temp;Humidity;BMP_temperature;BMP_pressure;BME280_temperature;BME280_humidity;BME280_pressure;Samples;Min_cycle;Max_cycle;Signal;HPM_P1;HPM_P2
2022/10/30 00:00:47;;;;;;;21.45;7.85;;;;;;;20.37;69.84;101119.78;5017723;28;20062;-70
2022/10/30 00:03:15;;;;;;;16.77;6.80;;;;;;;20.33;69.05;101130.13;5018236;28;20048;-70
2022/10/30 00:05:45;;;;;;;18.50;6.07;;;;;;;20.21;69.49;101133.84;5016247;28;20073;-70
2022/10/30 00:08:14;;;;;;;16.15;5.30;;;;;;;20.21;69.27;101139.44;5013289;28;20042;-70
2022/10/30 00:10:42;;;;;;;19.73;6.50;;;;;;;20.33;69.06;101135.72;5014351;28;20049;-70
2022/10/30 00:13:09;;;;;;;14.65;5.45;;;;;;;20.19;69.27;101133.41;5007931;28;20513;-71
2022/10/30 00:15:37;;;;;;;16.35;5.65;;;;;;;20.18;69.26;101129.00;5017578;28;20049;-70
2022/10/30 00:18:04;;;;;;;19.73;5.82;;;;;;;20.32;69.90;101125.69;5017574;28;20050;-70
2022/10/30 00:20:31;;;;;;;19.30;6.25;;;;;;;20.30;68.86;101125.22;5015535;28;20057;-71
2022/10/30 00:22:58;;;;;;;15.88;6.13;;;;;;;20.47;68.55;101122.00;5017811;28;20054;-70
2022/10/30 00:25:26;;;;;;;16.67;5.78;;;;;;;20.56;67.16;101134.56;5017213;28;20065;-70
2022/10/30 00:27:53;;;;;;;14.52;5.22;;;;;;;20.42;67.82;101127.88;4999931;28;20046;-70
2022/10/30 00:30:21;;;;;;;20.42;4.90;;;;;;;20.51;68.66;101117.25;5016381;28;20052;-69
2022/10/30 00:32:48;;;;;;;18.35;5.63;;;;;;;20.69;67.96;101113.63;5017544;28;20381;-71
2022/10/30 00:35:15;;;;;;;15.93;5.90;;;;;;;20.78;68.03;101124.59;5012503;28;20057;-70
2022/10/30 00:37:42;;;;;;;18.60;6.35;;;;;;;20.76;68.42;101122.16;5014160;28;20065;-70
2022/10/30 00:40:17;;;;;;;18.33;5.43;;;;;;;20.37;69.01;101119.78;5000080;28;20053;-70
2022/10/30 00:42:45;;;;;;;15.98;5.53;;;;;;;20.43;69.76;101115.50;5008903;28;20416;-70
2022/10/30 00:45:14;;;;;;;10.43;4.97;;;;;;;20.48;69.17;101113.22;5015498;28;20061;-71
2022/10/30 00:47:58;;;;;;;14.10;5.85;;;;;;;20.23;68.45;101131.50;5014323;28;20065;-70
2022/10/30 00:50:31;;;;;;;16.77;5.53;;;;;;;20.19;69.66;101132.63;4998939;28;20089;-69
2022/10/30 00:53:11;;;;;;;19.65;5.95;;;;;;;20.08;68.83;101129.56;5016101;28;20517;-71
2022/10/30 00:55:41;;;;;;;;;;;;;;;19.89;69.04;101132.34;4999872;28;20050;-70
2022/10/30 00:58:10;;;;;;;17.35;6.43;;;;;;;19.82;70.54;101134.97;4999654;28;19921;-71
2022/10/30 01:00:39;;;;;;;20.60;5.97;;;;;;;19.85;71.45;101142.63;5015136;28;20162;-70
2022/10/30 01:03:06;;;;;;;20.80;6.25;;;;;;;19.71;70.15;101137.53;5018880;28;20060;-69
2022/10/30 01:05:34;;;;;;;12.98;5.78;;;;;;;19.65;72.14;101141.78;5015681;28;20501;-70
2022/10/30 01:08:03;;;;;;;16.50;6.53;;;;;;;19.58;72.33;101135.22;5013988;28;20054;-69
2022/10/30 01:10:30;;;;;;;15.88;5.65;;;;;;;19.59;72.26;101136.84;4998593;28;20057;-70
2022/10/30 01:12:58;;;;;;;17.40;5.97;;;;;;;19.68;71.46;101135.44;4998644;28;20050;-70
2022/10/30 01:15:34;;;;;;;14.13;5.50;;;;;;;19.74;71.20;101136.78;5015219;28;20061;-70
2022/10/30 01:18:22;;;;;;;21.95;6.47;;;;;;;19.59;71.65;101142.41;4999483;28;20053;-70
2022/10/30 01:21:14;;;;;;;13.63;5.90;;;;;;;19.69;71.80;101136.25;4998317;28;20054;-71
2022/10/30 01:24:00;;;;;;;17.42;6.32;;;;;;;19.54;71.76;101140.72;4999152;28;20061;-70
2022/10/30 01:26:47;;;;;;;23.25;5.63;;;;;;;19.49;72.84;101140.97;4998540;28;20057;-70
2022/10/30 01:29:44;;;;;;;14.45;5.28;;;;;;;19.58;71.44;101147.19;4979319;28;20068;-70
2022/10/30 01:32:36;;;;;;;15.60;5.75;;;;;;;19.52;72.47;101150.63;4991247;28;20149;-70
2022/10/30 01:35:27;;;;;;;15.67;6.20;;;;;;;19.41;71.34;101158.75;5011153;28;20069;-70
2022/10/30 01:38:17;;;;;;;17.05;5.50;;;;;;;19.45;72.33;101144.88;4992456;28;20443;-70
2022/10/30 01:40:47;;;;;;;19.73;6.43;;;;;;;19.39;71.49;101140.72;4987579;28;20050;-70
2022/10/30 01:43:14;;;;;;;14.38;6.15;;;;;;;19.47;72.72;101136.94;5016382;28;20057;-70
2022/10/30 01:45:57;;;;;;;16.05;5.90;;;;;;;19.45;72.24;101142.09;4982134;28;20061;-70
2022/10/30 01:48:46;;;;;;;19.63;6.30;;;;;;;19.45;72.75;101137.31;5014676;28;20519;-70
2022/10/30 01:51:44;;;;;;;20.23;6.03;;;;;;;19.40;73.08;101134.81;5007124;28;20058;-70
2022/10/30 01:54:19;;;;;;;16.35;5.90;;;;;;;19.44;72.88;101135.69;4991064;28;20061;-71
2022/10/30 01:57:09;;;;;;;14.02;5.32;;;;;;;19.42;72.68;101135.22;5014497;28;20053;-70
2022/10/30 01:59:44;;;;;;;15.20;6.13;;;;;;;19.53;72.81;101121.50;4998160;28;20046;-70
2022/10/30 02:02:12;;;;;;;18.45;6.60;;;;;;;19.40;72.18;101115.25;4984105;28;20054;-70
2022/10/30 02:04:39;;;;;;;14.35;6.10;;;;;;;19.33;71.51;101109.50;4992010;28;20045;-70
2022/10/30 02:07:07;;;;;;;13.45;5.60;;;;;;;19.21;71.67;101109.56;4998076;28;20061;-69
2022/10/30 02:09:41;;;;;;;18.08;6.57;;;;;;;19.12;72.94;101114.53;4999079;28;20050;-70
2022/10/30 02:12:09;;;;;;;15.98;6.05;;;;;;;19.07;73.84;101110.00;5014977;28;20057;-70
2022/10/30 02:14:40;;;;;;;17.25;5.90;;;;;;;19.22;73.84;101101.97;5015133;28;20610;-70
2022/10/30 02:17:08;;;;;;;21.05;6.25;;;;;;;19.36;72.72;101105.97;4992229;28;20511;-70
2022/10/30 02:19:35;;;;;;;14.68;5.63;;;;;;;19.29;72.18;101110.53;4990835;28;20050;-70
2022/10/30 02:22:03;;;;;;;13.93;6.03;;;;;;;19.30;72.34;101107.41;5012958;28;20064;-70
2022/10/30 02:24:30;;;;;;;15.25;5.82;;;;;;;19.18;71.81;101110.25;4994074;28;20053;-70
2022/10/30 02:26:59;;;;;;;16.42;5.85;;;;;;;19.13;72.55;101116.13;4998561;28;20489;-70
2022/10/30 02:29:26;;;;;;;14.38;6.50;;;;;;;19.17;72.66;101111.44;4998569;28;20069;-70
2022/10/30 02:31:54;;;;;;;17.27;6.50;;;;;;;19.18;72.34;101109.47;5007792;28;20058;-69
2022/10/30 02:34:21;;;;;;;14.82;6.82;;;;;;;19.27;73.30;101105.31;4988514;28;20050;-70
2022/10/30 02:36:48;;;;;;;13.45;5.30;;;;;;;19.14;72.67;101109.38;5011361;28;20053;-70
2022/10/30 02:39:17;;;;;;;16.40;6.07;;;;;;;19.30;73.41;101110.19;4998086;28;20401;-69
2022/10/30 02:41:44;;;;;;;14.32;5.75;;;;;;;19.28;73.27;101109.75;5015042;28;20049;-70
2022/10/30 02:44:11;;;;;;;15.35;6.07;;;;;;;19.46;72.43;101107.38;5015063;28;20054;-70
2022/10/30 02:46:39;;;;;;;19.63;6.05;;;;;;;19.46;72.23;101102.59;4997521;28;20049;-69
2022/10/30 02:49:06;;;;;;;14.18;5.82;;;;;;;19.46;72.62;101099.00;5014938;28;20057;-69
2022/10/30 02:51:33;;;;;;;17.60;5.80;;;;;;;19.37;72.07;101096.41;4996700;28;20061;-70
2022/10/30 02:54:01;;;;;;;18.90;6.18;;;;;;;19.26;72.38;101098.13;5014117;28;20050;-70
2022/10/30 02:56:29;;;;;;;13.23;5.53;;;;;;;19.29;73.05;101097.38;4997307;28;20057;-71
2022/10/30 02:58:56;;;;;;;12.27;5.43;;;;;;;19.19;72.09;101086.78;5015213;28;20050;-69
2022/10/30 03:01:23;;;;;;;12.85;5.78;;;;;;;19.39;72.83;101094.06;4997157;28;20046;-69
2022/10/30 03:03:54;;;;;;;15.02;5.95;;;;;;;19.40;72.60;101090.09;4997299;28;20046;-70
2022/10/30 03:06:22;;;;;;;13.57;6.10;;;;;;;19.38;72.04;101095.25;5014729;28;20413;-70
2022/10/30 03:08:50;;;;;;;14.43;5.47;;;;;;;19.09;72.44;101092.88;4997323;28;20049;-69
2022/10/30 03:11:19;;;;;;;15.75;5.72;;;;;;;19.20;72.98;101096.75;5013449;28;20050;-70
2022/10/30 03:13:47;;;;;;;13.77;5.77;;;;;;;19.23;72.26;101095.22;4997653;28;20056;-70
2022/10/30 03:16:17;;;;;;;17.67;5.60;;;;;;;19.19;72.59;101095.16;4997278;28;20054;-70
2022/10/30 03:18:45;;;;;;;18.35;6.18;;;;;;;19.36;72.87;101085.59;5015012;28;20512;-71
2022/10/30 03:21:15;;;;;;;17.33;5.97;;;;;;;19.46;72.54;101085.84;5013908;28;20076;-70
2022/10/30 03:23:44;;;;;;;14.10;5.85;;;;;;;19.36;72.87;101080.00;4985212;28;20061;-70
2022/10/30 03:26:12;;;;;;;18.27;5.90;;;;;;;19.25;72.62;101084.50;5013774;28;20057;-71
2022/10/30 03:28:47;;;;;;;15.43;6.03;;;;;;;19.32;73.10;101077.13;5017910;28;20046;-70
2022/10/30 03:31:17;;;;;;;19.02;6.53;;;;;;;19.24;71.79;101077.28;5017061;28;20052;-69
2022/10/30 03:33:45;;;;;;;15.95;5.50;;;;;;;19.22;72.11;101082.41;5017408;28;20046;-70
2022/10/30 03:36:13;;;;;;;21.65;6.45;;;;;;;19.22;72.84;101076.84;5016807;28;20061;-70
2022/10/30 03:38:41;;;;;;;16.70;5.70;;;;;;;19.15;72.45;101069.09;5014031;28;20428;-70
2022/10/30 03:41:12;;;;;;;17.00;6.28;;;;;;;19.13;72.85;101063.06;4996155;28;20049;-72
2022/10/30 03:43:39;;;;;;;17.77;6.63;;;;;;;19.20;73.22;101066.03;4983481;28;20417;-70
2022/10/30 03:46:08;;;;;;;17.55;6.55;;;;;;;19.24;73.13;101069.72;5000521;28;20551;-70
2022/10/30 03:48:35;;;;;;;13.85;5.60;;;;;;;19.25;72.58;101065.75;5001063;28;20053;-70
2022/10/30 03:51:03;;;;;;;14.95;6.40;;;;;;;19.24;73.10;101063.31;5000040;28;20061;-70
2022/10/30 03:53:30;;;;;;;18.33;6.65;;;;;;;18.87;72.43;101062.81;5017158;28;20057;-70
2022/10/30 03:56:00;;;;;;;14.77;5.85;;;;;;;19.01;74.50;101063.19;5000781;28;20049;-71
2022/10/30 03:58:35;;;;;;;22.55;6.32;;;;;;;19.07;74.02;101061.75;5016579;28;20054;-70
2022/10/30 04:01:05;;;;;;;17.13;6.13;;;;;;;19.13;73.23;101065.84;5012056;28;20069;-70
2022/10/30 04:03:36;;;;;;;16.80;5.97;;;;;;;19.02;72.29;101062.81;5000879;28;20053;-70
2022/10/30 04:06:05;;;;;;;13.88;6.03;;;;;;;19.05;73.47;101064.91;4996182;28;20049;-71
2022/10/30 04:08:33;;;;;;;24.45;6.70;;;;;;;19.08;72.62;101060.56;4997204;28;20045;-70
2022/10/30 04:11:01;;;;;;;14.15;5.82;;;;;;;18.99;73.19;101055.16;4999212;28;20056;-70
2022/10/30 04:13:29;;;;;;;17.88;6.00;;;;;;;19.05;73.73;101058.50;5000701;28;20512;-69
2022/10/30 04:15:56;;;;;;;18.95;6.10;;;;;;;19.14;72.94;101069.47;5017915;28;20053;-70
2022/10/30 04:18:25;;;;;;;10.48;5.15;;;;;;;19.17;72.94;101068.75;5017476;28;20049;-70
2022/10/30 04:20:54;;;;;;;13.90;6.20;;;;;;;18.97;73.41;101065.06;5016102;28;20061;-71
2022/10/30 04:23:21;;;;;;;13.15;5.82;;;;;;;19.07;74.01;101059.75;5017075;28;20440;-71
2022/10/30 04:25:49;;;;;;;16.73;6.30;;;;;;;19.06;73.45;101049.75;5000002;28;20085;-69
2022/10/30 04:28:17;;;;;;;23.83;6.88;;;;;;;18.91;72.87;101046.97;5000127;28;20049;-69
2022/10/30 04:30:46;;;;;;;16.77;6.57;;;;;;;18.95;72.77;101042.31;4999444;28;20404;-70
2022/10/30 04:33:15;;;;;;;16.10;5.95;;;;;;;18.83;74.01;101040.41;5016353;28;20053;-70
2022/10/30 04:35:43;;;;;;;15.43;6.07;;;;;;;18.91;74.22;101046.97;5015262;28;20056;-70
2022/10/30 04:38:15;;;;;;;16.20;6.55;;;;;;;18.83;74.47;101050.75;5016195;28;20065;-69
2022/10/30 04:40:43;;;;;;;16.83;5.88;;;;;;;18.94;74.77;101052.66;5001938;28;20072;-70
2022/10/30 04:43:12;;;;;;;14.75;6.18;;;;;;;19.14;74.18;101050.75;5000451;28;20048;-69
2022/10/30 04:45:41;;;;;;;19.00;7.05;;;;;;;18.85;73.81;101054.00;5015945;28;21718;-70
2022/10/30 04:48:11;;;;;;;14.43;6.25;;;;;;;18.75;74.50;101051.75;5015980;28;20046;-70
2022/10/30 04:50:39;;;;;;;13.07;5.65;;;;;;;18.79;75.29;101047.06;5015371;28;20049;-70
2022/10/30 04:53:11;;;;;;;14.20;5.95;;;;;;;18.70;74.40;101050.06;5015787;28;20413;-70
2022/10/30 04:55:38;;;;;;;17.65;6.70;;;;;;;18.67;76.01;101042.38;4999317;28;20057;-70
2022/10/30 04:58:07;;;;;;;21.25;6.97;;;;;;;18.48;76.83;101044.28;5016065;28;20497;-70
2022/10/30 05:00:37;;;;;;;15.45;6.30;;;;;;;18.77;76.32;101047.44;4998492;28;20993;-70
2022/10/30 05:03:17;;;;;;;17.25;6.38;;;;;;;18.81;76.14;101044.75;5000432;28;20057;-71
2022/10/30 05:05:46;;;;;;;16.90;6.60;;;;;;;18.57;73.71;101039.31;4994783;28;20054;-70
2022/10/30 05:08:13;;;;;;;15.88;6.53;;;;;;;18.20;77.02;101049.84;5015968;28;20057;-70
2022/10/30 05:10:41;;;;;;;17.52;6.70;;;;;;;17.93;77.01;101048.72;5015242;28;20049;-71
2022/10/30 05:13:10;;;;;;;16.98;6.93;;;;;;;18.15;78.85;101044.53;4999554;28;20045;-70
2022/10/30 05:15:37;;;;;;;12.75;6.22;;;;;;;18.38;78.07;101044.75;5015517;28;20058;-70
2022/10/30 05:18:04;;;;;;;23.13;7.15;;;;;;;18.49;76.15;101041.13;5016876;28;20501;-70
2022/10/30 05:20:32;;;;;;;20.67;6.93;;;;;;;18.44;77.03;101044.19;4997442;28;20065;-70
2022/10/30 05:22:59;;;;;;;24.15;7.60;;;;;;;18.38;76.64;101037.19;4999628;28;20049;-70
2022/10/30 05:25:27;;;;;;;14.95;6.45;;;;;;;18.56;76.46;101037.69;5016731;28;20060;-69
2022/10/30 05:27:58;;;;;;;20.55;8.18;;;;;;;18.50;76.43;101019.59;5016015;28;20057;-70
2022/10/30 05:30:28;;;;;;;17.10;6.80;;;;;;;18.49;76.74;101023.56;4998822;28;20045;-70
2022/10/30 05:33:02;;;;;;;16.20;6.95;;;;;;;18.33;76.21;101033.88;4999256;28;20068;-70
2022/10/30 05:35:34;;;;;;;13.95;6.63;;;;;;;18.30;77.16;101015.06;5014831;28;20173;-70
2022/10/30 05:38:06;;;;;;;17.88;6.97;;;;;;;18.40;76.35;101026.53;5015424;28;20053;-71
2022/10/30 05:40:34;;;;;;;15.38;6.90;;;;;;;18.34;76.75;101035.50;4997689;28;20058;-70
2022/10/30 05:43:01;;;;;;;21.33;7.93;;;;;;;18.33;77.19;101042.22;5016146;28;20049;-70
2022/10/30 05:45:29;;;;;;;19.85;6.90;;;;;;;18.50;75.70;101044.69;5001022;28;20061;-70
2022/10/30 05:48:01;;;;;;;15.18;7.18;;;;;;;18.17;75.80;101047.78;5014542;28;20072;-70
2022/10/30 05:50:33;;;;;;;18.85;6.65;;;;;;;18.26;76.70;101042.84;4979173;28;20069;-70
2022/10/30 05:53:23;;;;;;;13.90;6.85;;;;;;;18.30;76.98;101024.25;5008565;28;20068;-71
2022/10/30 05:55:56;;;;;;;15.67;6.40;;;;;;;18.36;76.82;101024.81;5014732;28;20511;-70
2022/10/30 05:58:24;;;;;;;16.27;6.78;;;;;;;18.28;76.53;101025.75;5015048;28;20837;-70
2022/10/30 06:00:54;;;;;;;13.93;6.13;;;;;;;18.30;76.05;101023.44;4997671;28;20386;-71
2022/10/30 06:03:36;;;;;;;14.13;6.32;;;;;;;18.20;76.80;101026.75;5014870;28;20072;-69
2022/10/30 06:06:03;;;;;;;20.02;6.47;;;;;;;18.30;77.15;101027.03;4997654;28;20054;-70
2022/10/30 06:08:31;;;;;;;19.50;6.38;;;;;;;18.41;76.92;101028.13;4979074;28;20046;-70
2022/10/30 06:11:02;;;;;;;16.65;6.72;;;;;;;18.37;77.38;101037.56;4999210;28;20064;-69
2022/10/30 06:13:39;;;;;;;19.30;6.72;;;;;;;18.23;77.14;101037.19;4994562;28;20058;-69
2022/10/30 06:16:11;;;;;;;18.50;6.25;;;;;;;18.32;76.67;101030.28;5007153;28;20050;-69
2022/10/30 06:18:57;;;;;;;15.07;6.30;;;;;;;18.36;76.77;101030.38;5015725;28;20049;-70
2022/10/30 06:21:27;;;;;;;21.58;7.13;;;;;;;18.51;76.45;101027.63;4997046;28;20049;-69
2022/10/30 06:24:13;;;;;;;15.25;6.13;;;;;;;18.29;76.84;101030.19;5001116;28;20050;-70
2022/10/30 06:27:18;;;;;;;18.40;6.63;;;;;;;18.30;76.88;101032.63;4971434;28;20487;-72
2022/10/30 06:29:46;;;;;;;17.95;6.88;;;;;;;18.34;76.61;101030.72;4979875;28;20062;-70
2022/10/30 06:32:13;;;;;;;17.40;6.43;;;;;;;18.42;76.77;101031.75;4989831;28;20066;-72
2022/10/30 06:34:43;;;;;;;16.67;5.90;;;;;;;18.30;76.58;101040.97;5014106;28;20049;-71
2022/10/30 06:37:12;;;;;;;15.65;6.85;;;;;;;18.48;76.11;101036.69;4997459;28;20061;-72
2022/10/30 06:39:40;;;;;;;17.48;7.00;;;;;;;18.47;76.44;101037.06;5015711;28;20050;-71
2022/10/30 06:42:23;;;;;;;20.52;7.00;;;;;;;18.46;76.35;101038.25;5007634;28;20049;-71
2022/10/30 06:45:17;;;;;;;17.90;6.93;;;;;;;18.63;75.97;101040.69;4976034;28;20065;-72
2022/10/30 06:47:45;;;;;;;25.38;7.45;;;;;;;18.49;75.78;101051.47;5012486;28;20616;-71
2022/10/30 06:50:16;;;;;;;18.27;6.75;;;;;;;18.47;76.32;101057.41;4988119;28;20366;-70
2022/10/30 06:52:43;;;;;;;18.85;7.68;;;;;;;18.43;76.21;101050.91;5003630;28;20057;-71
2022/10/30 06:55:11;;;;;;;18.58;7.88;;;;;;;18.43;76.35;101048.13;5010333;28;20054;-72
2022/10/30 06:57:55;;;;;;;16.55;7.35;;;;;;;18.44;75.90;101054.53;5017576;28;20046;-70
2022/10/30 07:00:46;;;;;;;20.13;7.55;;;;;;;18.46;76.11;101049.41;5012162;28;20042;-71
2022/10/30 07:03:25;;;;;;;22.40;7.97;;;;;;;18.37;75.82;101048.72;5000901;28;20050;-70
2022/10/30 07:05:53;;;;;;;23.10;7.55;;;;;;;18.39;75.89;101041.63;5004113;28;20065;-71
2022/10/30 07:08:20;;;;;;;21.33;7.65;;;;;;;18.33;75.20;101039.44;5019848;28;20050;-72
2022/10/30 07:10:48;;;;;;;14.45;7.13;;;;;;;18.21;75.90;101033.94;5019943;28;20037;-70
2022/10/30 07:13:27;;;;;;;13.90;6.63;;;;;;;18.29;77.19;101046.91;5012860;28;20046;-70
2022/10/30 07:16:00;;;;;;;26.40;8.52;;;;;;;18.14;75.30;101054.06;5003319;28;20050;-70
2022/10/30 07:18:47;;;;;;;21.63;8.95;;;;;;;18.30;76.28;101045.75;5012998;28;20643;-70
2022/10/30 07:21:14;;;;;;;20.70;7.30;;;;;;;18.25;76.64;101035.66;5002772;28;20050;-71
2022/10/30 07:23:42;;;;;;;21.27;7.28;;;;;;;18.45;77.53;101028.22;5001987;28;20563;-71
2022/10/30 07:26:29;;;;;;;16.85;7.35;;;;;;;18.36;75.83;101033.97;5019637;28;20045;-73
2022/10/30 07:29:03;;;;;;;20.02;7.38;;;;;;;18.42;75.51;101032.56;4994684;28;20080;-72
2022/10/30 07:31:46;;;;;;;24.92;7.72;;;;;;;18.36;75.61;101042.31;5020868;28;20045;-71
2022/10/30 07:34:43;;;;;;;21.33;8.07;;;;;;;18.33;75.04;101045.03;5014652;28;20434;-71
2022/10/30 07:37:29;;;;;;;21.25;8.13;;;;;;;18.51;75.44;101043.56;5020638;28;20053;-71
2022/10/30 07:40:08;;;;;;;19.48;7.82;;;;;;;18.58;74.11;101049.31;5019907;28;20053;-69
2022/10/30 07:42:59;;;;;;;14.52;7.10;;;;;;;18.64;74.97;101047.88;5006550;28;20050;-71
2022/10/30 07:45:39;;;;;;;21.58;7.03;;;;;;;18.57;75.00;101036.53;4987221;28;20057;-70
2022/10/30 07:48:26;;;;;;;17.23;7.25;;;;;;;18.66;74.90;101037.16;5015592;28;20053;-70
2022/10/30 07:51:14;;;;;;;18.98;7.50;;;;;;;18.78;74.70;101045.44;4988349;28;20050;-70
2022/10/30 07:53:42;;;;;;;19.98;8.07;;;;;;;18.43;74.51;101030.59;5000530;28;20046;-69
2022/10/30 07:56:09;;;;;;;22.88;8.23;;;;;;;18.06;76.15;101046.69;5008265;28;20050;-70
2022/10/30 07:59:09;;;;;;;19.77;8.30;;;;;;;18.11;76.14;101037.25;5014375;28;20058;-70
2022/10/30 08:02:01;;;;;;;16.35;7.18;;;;;;;18.20;76.12;101038.69;4978047;28;20517;-69
2022/10/30 08:04:49;;;;;;;20.25;7.82;;;;;;;18.56;76.12;101052.47;5006648;28;20053;-70
2022/10/30 08:07:34;;;;;;;17.60;7.38;;;;;;;18.36;74.86;101063.84;5004060;28;20058;-69
2022/10/30 08:10:02;;;;;;;18.43;7.60;;;;;;;18.63;74.47;101068.59;5013405;28;20053;-70
2022/10/30 08:12:31;;;;;;;17.75;7.55;;;;;;;18.58;73.71;101072.47;5017355;28;20046;-70
2022/10/30 08:14:59;;;;;;;25.35;10.23;;;;;;;18.41;79.13;101095.09;5010587;28;20061;-68
2022/10/30 08:17:26;;;;;;;18.73;7.38;;;;;;;18.40;74.74;101096.25;4999902;28;20061;-69
2022/10/30 08:19:55;;;;;;;21.60;8.10;;;;;;;18.69;75.11;101095.06;5000765;28;20064;-68
2022/10/30 08:22:23;;;;;;;18.50;7.90;;;;;;;18.90;74.49;101102.00;4997790;28;20043;-70
2022/10/30 08:24:58;;;;;;;18.48;7.97;;;;;;;18.89;72.37;101102.34;5008326;28;20500;-69
2022/10/30 08:27:27;;;;;;;42.10;12.27;;;;;;;18.82;74.57;101108.56;5004594;28;20060;-71
2022/10/30 08:29:54;;;;;;;22.75;8.13;;;;;;;19.02;72.27;101115.84;4996128;28;20061;-70
2022/10/30 08:32:22;;;;;;;27.92;14.25;;;;;;;18.95;70.93;101115.69;5007321;28;20046;-73
2022/10/30 08:35:08;;;;;;;21.60;11.00;;;;;;;18.99;70.07;101121.34;5017778;28;20073;-73
2022/10/30 08:37:36;;;;;;;19.27;7.55;;;;;;;18.95;69.50;101114.88;5011719;28;20064;-69
2022/10/30 08:40:04;;;;;;;17.00;7.05;;;;;;;18.77;68.18;101110.81;5016492;28;20073;-71
2022/10/30 08:42:40;;;;;;;23.85;9.35;;;;;;;18.74;68.12;101103.97;5008128;28;20049;-71
2022/10/30 08:45:10;;;;;;;22.73;9.00;;;;;;;19.17;69.20;101105.03;5008432;28;20130;-72
2022/10/30 08:47:58;;;;;;;16.13;7.10;;;;;;;19.09;67.23;101113.25;4985113;28;20053;-70
2022/10/30 08:50:28;;;;;;;20.20;7.00;;;;;;;19.22;67.70;101119.56;5013669;28;20512;-71
2022/10/30 08:53:03;;;;;;;18.70;7.43;;;;;;;19.24;66.87;101106.03;5015500;28;20050;-72
2022/10/30 08:55:31;;;;;;;15.57;7.20;;;;;;;19.28;66.94;101101.34;4998449;28;20053;-72
2022/10/30 08:58:01;;;;;;;;;;;;;;;19.40;66.40;101092.91;5000136;28;20058;-71
2022/10/30 09:00:29;;;;;;;18.13;6.95;;;;;;;19.42;65.29;101103.69;5012906;28;19925;-72
2022/10/30 09:03:11;;;;;;;17.27;6.90;;;;;;;19.44;66.08;101107.75;4998010;28;20049;-72
2022/10/30 09:05:44;;;;;;;17.17;7.00;;;;;;;19.54;65.65;101101.59;4996069;28;20049;-72
2022/10/30 09:08:17;;;;;;;16.58;6.88;;;;;;;19.65;65.07;101099.06;5012528;28;20057;-72
2022/10/30 09:11:01;;;;;;;19.58;7.20;;;;;;;19.55;64.47;101114.41;4994556;28;20061;-72
2022/10/30 09:13:29;;;;;;;17.58;6.75;;;;;;;19.54;63.73;101114.75;5016843;28;20050;-72
2022/10/30 09:16:01;;;;;;;20.35;6.93;;;;;;;19.45;64.71;101106.59;4996864;28;20046;-71
2022/10/30 09:18:31;;;;;;;19.48;7.95;;;;;;;19.38;64.45;101113.97;5010309;28;20061;-73
2022/10/30 09:20:59;;;;;;;18.90;6.50;;;;;;;19.53;65.36;101119.53;5007313;28;20049;-68
2022/10/30 09:23:35;;;;;;;22.65;6.65;;;;;;;19.28;64.13;101123.72;4992076;28;20042;-70
2022/10/30 09:26:25;;;;;;;20.08;6.80;;;;;;;19.62;64.72;101133.31;5012220;28;20054;-72
2022/10/30 09:29:01;;;;;;;17.98;6.80;;;;;;;19.68;63.19;101131.84;4997202;28;20858;-68
2022/10/30 09:31:44;;;;;;;20.77;6.90;;;;;;;19.61;64.06;101129.72;5006012;28;20045;-69
2022/10/30 09:34:16;;;;;;;18.10;7.97;;;;;;;19.69;64.23;101134.28;5001566;28;20046;-71
2022/10/30 09:36:55;;;;;;;19.37;8.53;;;;;;;19.75;63.90;101146.00;5001056;28;20049;-69
2022/10/30 09:39:24;;;;;;;38.47;13.73;;;;;;;19.71;63.72;101131.13;4995504;28;20076;-68
2022/10/30 09:42:11;;;;;;;29.00;13.10;;;;;;;19.77;62.92;101129.69;4984199;28;20045;-71
2022/10/30 09:44:45;;;;;;;25.98;10.05;;;;;;;19.88;62.93;101134.31;5004888;28;20046;-69
2022/10/30 09:47:48;;;;;;;27.05;14.98;;;;;;;19.74;62.00;101138.78;4994395;28;20061;-70
2022/10/30 09:50:19;;;;;;;28.60;10.07;;;;;;;19.89;62.52;101144.31;4996810;28;20046;-64
2022/10/30 09:53:06;;;;;;;23.10;8.65;;;;;;;20.01;61.51;101146.97;4997355;28;20076;-64
2022/10/30 09:55:36;;;;;;;15.30;7.82;;;;;;;19.75;62.40;101132.03;4995041;28;20065;-63
2022/10/30 09:58:36;;;;;;;;;;;;;;;19.88;61.71;101141.88;5015171;28;20060;-62
2022/10/30 10:01:33;;;;;;;20.77;6.40;;;;;;;19.61;61.45;101129.72;4976195;28;19929;-63
2022/10/30 10:04:34;;;;;;;28.77;5.68;;;;;;;20.01;60.21;101130.19;4959774;28;20050;-64
2022/10/30 10:07:23;;;;;;;26.45;6.22;;;;;;;20.20;59.50;101143.44;5012466;28;20061;-64
2022/10/30 10:10:00;;;;;;;18.80;5.55;;;;;;;20.07;58.70;101151.13;5013886;28;20077;-65
2022/10/30 10:12:55;;;;;;;18.50;5.65;;;;;;;20.07;58.46;101145.53;5009675;28;20065;-64
2022/10/30 10:15:41;;;;;;;17.60;6.03;;;;;;;19.98;59.50;101139.31;5012978;28;20050;-64
2022/10/30 10:18:44;;;;;;;20.73;5.32;;;;;;;20.35;58.01;101128.53;5005980;28;20054;-65
2022/10/30 10:21:27;;;;;;;21.90;6.00;;;;;;;20.21;58.07;101130.25;4995163;28;20057;-65
2022/10/30 10:23:57;;;;;;;21.23;5.07;;;;;;;20.36;58.54;101137.75;5015046;28;20496;-62
2022/10/30 10:26:28;;;;;;;17.83;7.40;;;;;;;20.44;58.23;101126.34;5010474;28;20484;-63
2022/10/30 10:29:01;;;;;;;14.68;5.43;;;;;;;20.27;58.50;101135.19;4996134;28;20050;-62
2022/10/30 10:31:45;;;;;;;19.15;5.80;;;;;;;20.34;58.23;101138.13;5001444;28;20064;-63
2022/10/30 10:34:41;;;;;;;14.77;4.95;;;;;;;20.37;58.25;101131.78;5021575;28;20041;-62
2022/10/30 10:37:41;;;;;;;21.27;6.85;;;;;;;20.54;57.75;101127.75;4973493;28;20062;-63
2022/10/30 10:40:17;;;;;;;20.93;8.37;;;;;;;20.58;58.28;101131.41;5005770;28;20057;-62
2022/10/30 10:43:15;;;;;;;15.68;5.15;;;;;;;20.72;57.46;101154.06;5003397;28;20060;-64
2022/10/30 10:45:51;;;;;;;18.80;6.10;;;;;;;20.77;57.08;101160.19;5005777;28;20053;-65
2022/10/30 10:48:34;;;;;;;14.45;4.90;;;;;;;20.54;57.48;101173.31;4997756;28;20065;-63
2022/10/30 10:51:12;;;;;;;17.38;5.70;;;;;;;20.59;57.85;101177.81;5011960;28;20046;-63
2022/10/30 10:53:46;;;;;;;17.10;5.85;;;;;;;20.64;57.93;101183.91;5011461;28;20050;-63
2022/10/30 10:56:14;;;;;;;20.45;8.38;;;;;;;20.78;58.04;101180.59;4991011;28;20045;-65
2022/10/30 10:58:51;;;;;;;15.25;5.43;;;;;;;20.64;57.06;101189.50;5007732;28;20045;-64
2022/10/30 11:01:38;;;;;;;18.17;5.57;;;;;;;20.39;57.88;101182.59;4997262;28;20054;-65
2022/10/30 11:04:19;;;;;;;20.35;5.80;;;;;;;20.40;58.75;101183.44;5008625;28;20046;-66
2022/10/30 11:06:50;;;;;;;15.45;4.68;;;;;;;20.27;59.61;101182.75;4999752;28;20061;-65
2022/10/30 11:09:22;;;;;;;16.45;5.10;;;;;;;20.33;59.06;101189.66;5012538;28;20418;-67
2022/10/30 11:11:51;;;;;;;16.48;5.70;;;;;;;20.21;59.26;101197.41;5008679;28;20069;-67
2022/10/30 11:14:24;;;;;;;25.30;6.35;;;;;;;19.95;60.54;101203.56;5024297;28;20061;-64
2022/10/30 11:17:00;;;;;;;17.42;5.78;;;;;;;19.49;63.13;101221.22;4996246;28;20061;-65
2022/10/30 11:19:29;;;;;;;16.65;6.15;;;;;;;19.30;64.30;101216.34;4995812;28;20065;-66
2022/10/30 11:21:57;;;;;;;18.70;6.05;;;;;;;19.44;63.81;101196.34;4994649;28;20069;-67
2022/10/30 11:24:33;;;;;;;21.42;5.68;;;;;;;20.00;63.30;101186.50;4997234;28;20049;-63
2022/10/30 11:27:24;;;;;;;17.00;6.30;;;;;;;20.19;62.71;101188.56;5012605;28;20053;-64
2022/10/30 11:29:58;;;;;;;24.60;6.18;;;;;;;20.46;61.79;101191.16;5013947;28;20129;-64
2022/10/30 11:32:31;;;;;;;21.85;6.50;;;;;;;20.48;60.89;101193.56;5004969;28;20429;-64
2022/10/30 11:35:08;;;;;;;20.77;5.75;;;;;;;20.55;62.61;101202.94;5004280;28;20069;-64
2022/10/30 11:37:41;;;;;;;18.27;6.57;;;;;;;20.11;62.14;101218.31;5013053;28;20049;-65
2022/10/30 11:40:09;;;;;;;19.73;6.20;;;;;;;19.17;65.27;101214.78;5005630;28;20054;-64
2022/10/30 11:42:39;;;;;;;17.42;6.85;;;;;;;18.38;69.51;101220.47;5010979;28;20056;-65
2022/10/30 11:45:14;;;;;;;24.40;6.82;;;;;;;18.58;69.94;101223.13;4994668;28;20061;-65
2022/10/30 11:47:42;;;;;;;21.83;6.85;;;;;;;18.40;69.71;101220.94;4999030;28;20046;-64